Ana Sayfa
METAR-TAF:

METAR-TAF

Havaalanları :

Mwanza, Tanzanya

Enlem: 02-28S, Boylam: 032-55E, yükseklik: 1139 m

Güncel hava durumu gözlemi

Sıcaklık
Basınç

METAR: HTMW HTSO HTSU

Saat: 05:49 (02:49 UTC)

Tahmin

Rapor saat 23:00 UTC de 3 saat ve 49 dakika önce yapıldı.
Ayın 08'si saat 00 UTC'den ayın 08'si saat 24 UTC'ye kadar geçerli Tahmin
Rüzgar kuzey/kuzeybatıdan 5 kt
Görüş mesafesi 10 km veya daha fazla
1800 ft yükseklikte parçalı bulutlu
1900 ft yükseklikte az bulutlu, Kümülonimbus.
8000 ft yükseklikte parçalı çok bulutlu
gök gürültülü fırtına, yağmur
Dönüşüyor
ayın 08'si saat 12 UTC'den ayın 08'si saat 14 UTC'ye kadar
2200 ft yükseklikte az bulutlu
2300 ft yükseklikte az bulutlu, Kümülonimbus.
Dönüşüyor
ayın 08'si saat 18 UTC'den ayın 08'si saat 20 UTC'ye kadar
Rüzgar güneydan 5 kt

TAF: HTMW 072300Z 0800/0824 33005KT 9999 TSRA SCT018 FEW019CB BKN080 BECMG 0812/0814 NSW FEW022 FEW023CB BECMG 0818/0820 18005KT

4.000'den fazla havaalanı için hava durumu gözlemleri ve tahminleri (METAR ve TAF raporları).

Kullanılabilir istasyonlar harita üzerinde sarı ve kırmızı noktalarla gösterilir.

İstasyonun adını görmek için fareyi noktanın üzerinde gezdirin.

Sonrasında hava gözlem ve tahminlerini görmek için tıklayın.

Haritayı değiştirmek için: yaklaştırmak için siyah artı işaretli yeşil düğmeye ve uzaklaştırmak için de eksi işaretli düğmeye hızla tıklayın; bitişik haritalar için yeşil okları kullanın.


METAR-TAF: